createdAt,value
2018-02-06T00:01:08.967Z,97903.23
2018-02-06T00:03:37.247Z,97909.86
2018-02-06T00:06:05.517Z,97899.55
2018-02-06T00:08:34.623Z,97905.27
2018-02-06T00:11:03.706Z,97900.74
2018-02-06T00:13:32.038Z,97885.33
2018-02-06T00:16:00.299Z,97894.70
2018-02-06T00:18:30.071Z,97884.00
2018-02-06T00:20:58.364Z,97884.33
2018-02-06T00:23:26.628Z,97882.46
2018-02-06T00:25:54.911Z,97882.16
2018-02-06T00:28:23.948Z,97876.69
2018-02-06T00:30:52.248Z,97875.87
2018-02-06T00:33:20.627Z,97871.27
2018-02-06T00:35:48.921Z,97867.11
2018-02-06T00:38:17.198Z,97869.95
2018-02-06T00:40:45.498Z,97872.34
2018-02-06T00:43:13.759Z,97863.88
2018-02-06T00:45:42.037Z,97874.33
2018-02-06T00:48:11.076Z,97870.97
2018-02-06T00:50:39.359Z,97871.30
2018-02-06T00:53:07.672Z,97871.05
2018-02-06T00:55:35.972Z,97874.56
2018-02-06T00:58:04.253Z,97864.12
2018-02-06T01:00:35.609Z,97858.88
2018-02-06T01:03:03.884Z,97855.56
2018-02-06T01:05:32.155Z,97849.20
2018-02-06T01:08:00.412Z,97838.27
2018-02-06T01:10:30.217Z,97834.00
2018-02-06T01:12:58.504Z,97829.78
2018-02-06T01:15:26.777Z,97826.55
2018-02-06T01:17:55.050Z,97822.15
2018-02-06T01:20:23.348Z,97815.13
2018-02-06T01:22:51.608Z,97817.32
2018-02-06T01:25:19.883Z,97823.25
2018-02-06T01:27:48.947Z,97819.16
2018-02-06T01:30:17.244Z,97816.39
2018-02-06T01:32:46.265Z,97803.63
2018-02-06T01:35:14.532Z,97799.38
2018-02-06T01:37:42.816Z,97798.34
2018-02-06T01:40:11.075Z,97793.16
2018-02-06T01:42:39.369Z,97799.72
2018-02-06T01:45:07.648Z,97799.27
2018-02-06T01:47:35.935Z,97784.03
2018-02-06T01:50:06.144Z,97784.16
2018-02-06T01:52:34.425Z,97769.48
2018-02-06T01:55:02.700Z,97779.55
2018-02-06T01:57:30.980Z,97779.77
2018-02-06T01:59:59.296Z,97772.53
2018-02-06T02:02:28.731Z,97776.27
2018-02-06T02:04:57.752Z,97772.69
2018-02-06T02:07:26.030Z,97766.47
2018-02-06T02:09:55.072Z,97761.04
2018-02-06T02:12:23.351Z,97763.22
2018-02-06T02:14:51.662Z,97769.75
2018-02-06T02:17:19.932Z,97768.45
2018-02-06T02:19:48.212Z,97752.66
2018-02-06T02:22:16.487Z,97753.37
2018-02-06T02:24:45.499Z,97753.17
2018-02-06T02:27:13.782Z,97740.47
2018-02-06T02:29:42.839Z,97738.86
2018-02-06T02:32:11.122Z,97737.80
2018-02-06T02:34:39.383Z,97734.66
2018-02-06T02:37:07.681Z,97732.77
2018-02-06T02:39:35.939Z,97729.83
2018-02-06T04:40:48.981Z,97616.81
2018-02-06T04:43:18.007Z,97617.55
2018-02-06T04:45:46.303Z,97616.48
2018-02-06T04:48:14.575Z,97610.53
2018-02-06T04:50:43.658Z,97615.09
2018-02-06T04:53:12.687Z,97608.33
2018-02-06T04:55:40.958Z,97611.47
2018-02-06T04:58:09.992Z,97605.63
2018-02-06T05:00:38.279Z,97609.06
2018-02-06T05:05:36.681Z,97601.63
2018-02-06T05:08:05.742Z,97596.77
2018-02-06T05:10:34.038Z,97603.06
2018-02-06T05:13:02.299Z,97592.48
2018-02-06T05:15:30.579Z,97586.23
2018-02-06T05:17:59.628Z,97586.77
2018-02-06T05:20:27.891Z,97586.44
2018-02-06T05:22:56.164Z,97587.13
2018-02-06T05:25:24.443Z,97582.07
2018-02-06T05:27:52.723Z,97581.86
2018-02-06T05:30:21.774Z,97570.83
2018-02-06T05:32:50.033Z,97565.64
2018-02-06T05:35:18.313Z,97561.27
2018-02-06T05:37:46.588Z,97560.22
2018-02-06T05:40:16.068Z,97563.84
2018-02-06T05:42:44.337Z,97563.16
2018-02-06T05:45:12.609Z,97562.25
2018-02-06T05:47:40.879Z,97558.12
2018-02-06T05:50:09.931Z,97554.83
2018-02-06T05:52:38.215Z,97541.44
2018-02-06T05:55:06.541Z,97546.21
2018-02-06T05:57:34.888Z,97547.71
2018-02-06T06:00:03.220Z,97544.33
2018-02-06T06:02:31.507Z,97538.56
2018-02-06T06:04:59.792Z,97542.79
2018-02-06T06:07:28.075Z,97537.80
2018-02-06T06:09:56.346Z,97538.45
2018-02-06T06:12:24.624Z,97532.96
2018-02-06T06:14:52.884Z,97529.09
2018-02-06T06:17:21.185Z,97529.15
2018-02-06T06:19:50.952Z,97527.83
2018-02-06T06:22:19.237Z,97516.44
2018-02-06T06:24:47.555Z,97523.67
2018-02-06T06:27:15.839Z,97520.03
2018-02-06T06:29:44.116Z,97522.02
2018-02-06T06:32:12.395Z,97511.70
2018-02-06T06:34:40.664Z,97511.66
2018-02-06T06:37:08.947Z,97509.89
2018-02-06T06:39:37.275Z,97511.73
2018-02-06T06:42:05.580Z,97508.63
2018-02-06T06:44:34.647Z,97511.38
2018-02-06T06:47:02.955Z,97518.95
2018-02-06T06:49:32.727Z,97512.22
2018-02-06T06:52:01.032Z,97512.02
2018-02-06T06:54:29.315Z,97528.44
2018-02-06T06:56:57.608Z,97512.27
2018-02-06T06:59:25.904Z,97511.71
2018-02-06T07:01:54.199Z,97505.36
2018-02-06T07:04:22.464Z,97509.55
2018-02-06T07:06:50.799Z,97509.94
2018-02-06T07:09:19.032Z,97511.91
2018-02-06T07:11:48.096Z,97510.93
2018-02-06T07:14:16.369Z,97527.94
2018-02-06T07:16:44.639Z,97514.49
2018-02-06T07:19:12.894Z,97501.63
2018-02-06T07:21:42.012Z,97492.78
2018-02-06T07:24:11.347Z,97498.33
2018-02-06T07:26:39.929Z,97488.33
2018-02-06T07:29:10.392Z,97496.95
2018-02-06T07:31:38.925Z,97498.25
2018-02-06T07:34:08.905Z,97492.79
2018-02-06T07:36:37.728Z,97496.96
2018-02-06T07:39:06.350Z,97495.22
2018-02-06T07:41:35.771Z,97496.73
2018-02-06T07:44:04.399Z,97493.54
2018-02-06T07:46:33.027Z,97494.47
2018-02-06T07:49:01.511Z,97482.91
2018-02-06T07:51:29.870Z,97494.85
2018-02-06T07:53:58.987Z,97482.34
2018-02-06T07:56:28.152Z,97488.84
2018-02-06T07:58:56.508Z,97490.58
2018-02-06T08:01:24.855Z,97491.84
2018-02-06T08:03:53.206Z,97494.20
2018-02-06T08:06:22.355Z,97496.95
2018-02-06T08:08:50.815Z,97494.58
2018-02-06T08:11:19.274Z,97492.16
2018-02-06T08:13:48.091Z,97485.41
2018-02-06T08:16:17.415Z,97487.66
2018-02-06T08:18:46.244Z,97486.09
2018-02-06T08:21:14.613Z,97486.95
2018-02-06T08:23:43.143Z,97485.86
2018-02-06T08:26:12.686Z,97482.91
2018-02-06T08:28:41.071Z,97480.45
2018-02-06T08:31:10.237Z,97480.09
2018-02-06T08:33:38.786Z,97477.84
2018-02-06T08:36:08.031Z,97477.79
2018-02-06T08:38:36.505Z,97481.62
2018-02-06T08:41:05.042Z,97481.34
2018-02-06T08:43:33.521Z,97466.16
2018-02-06T08:46:01.856Z,97469.66
2018-02-06T08:48:30.997Z,97468.81
2018-02-06T08:50:59.379Z,97472.55
2018-02-06T08:53:27.778Z,97474.33
2018-02-06T08:55:56.178Z,97473.59
2018-02-06T08:58:24.598Z,97463.09
2018-02-06T09:00:52.924Z,97460.38
2018-02-06T09:03:22.467Z,97465.45
2018-02-06T09:05:51.064Z,97465.73
2018-02-06T09:08:21.581Z,97447.63
2018-02-06T09:10:50.132Z,97458.47
2018-02-06T09:13:21.528Z,97462.63
2018-02-06T09:15:51.527Z,97448.43
2018-02-06T09:18:20.981Z,97449.11
2018-02-06T09:20:51.171Z,97438.66
2018-02-06T09:23:20.882Z,97441.84
2018-02-06T09:25:50.681Z,97445.41
2018-02-06T09:28:20.344Z,97446.76
2018-02-06T09:30:50.789Z,97445.87
2018-02-06T09:33:21.450Z,97433.66
2018-02-06T09:35:51.251Z,97437.56
2018-02-06T09:38:20.991Z,97446.58
2018-02-06T09:40:50.471Z,97426.59
2018-02-06T09:43:18.953Z,97433.86
2018-02-06T09:45:48.451Z,97428.48
2018-02-06T09:48:19.293Z,97427.48
2018-02-06T09:50:48.846Z,97420.62
2018-02-06T09:53:17.529Z,97428.30
2018-02-06T09:55:48.130Z,97416.25
2018-02-06T09:58:16.868Z,97416.98
2018-02-06T10:00:46.967Z,97416.79
2018-02-06T10:03:17.126Z,97409.59
2018-02-06T10:05:47.412Z,97418.28
2018-02-06T10:08:16.047Z,97423.03
2018-02-06T10:10:45.074Z,97415.17
2018-02-06T10:13:14.572Z,97419.07
2018-02-06T10:15:45.028Z,97410.02
2018-02-06T10:18:14.701Z,97411.08
2018-02-06T10:20:46.431Z,97413.73
2018-02-06T10:23:15.928Z,97414.34
2018-02-06T10:25:46.573Z,97409.87
2018-02-06T10:28:16.768Z,97413.72
2018-02-06T10:30:46.686Z,97401.69
2018-02-06T10:36:16.139Z,97406.52
2018-02-06T10:38:46.457Z,97400.98
2018-02-06T10:41:15.191Z,97395.91
2018-02-06T10:43:43.798Z,97379.05
2018-02-06T10:46:13.113Z,97381.81
2018-02-06T10:48:41.447Z,97384.03
2018-02-06T10:51:10.652Z,97373.06
2018-02-06T10:53:43.244Z,97374.38
2018-02-06T10:56:12.719Z,97373.63
2018-02-06T10:58:41.952Z,97369.37
2018-02-06T11:01:10.635Z,97366.86
2018-02-06T11:03:39.853Z,97366.33
2018-02-06T11:06:08.380Z,97358.16
2018-02-06T11:08:37.033Z,97356.73
2018-02-06T11:11:08.953Z,97362.88
2018-02-06T11:13:37.890Z,97351.04
2018-02-06T11:16:08.218Z,97354.87
2018-02-06T11:18:36.675Z,97344.53
2018-02-06T11:21:06.168Z,97345.66
2018-02-06T11:23:36.104Z,97339.59
2018-02-06T11:26:09.358Z,97339.16
2018-02-06T11:28:38.000Z,97337.91
2018-02-06T11:31:06.512Z,97340.08
2018-02-06T11:33:38.426Z,97331.97
2018-02-06T11:36:06.868Z,97322.27
2018-02-06T11:38:36.423Z,97317.36
2018-02-06T11:41:05.214Z,97309.68
2018-02-06T11:43:33.658Z,97318.05
2018-02-06T11:46:02.813Z,97312.59
2018-02-06T11:48:31.554Z,97308.53
2018-02-06T11:51:00.444Z,97306.71
2018-02-06T11:53:28.850Z,97307.45
2018-02-06T11:55:57.224Z,97294.25
2018-02-06T11:58:25.860Z,97287.78
2018-02-06T12:00:54.487Z,97288.20
2018-02-06T12:03:23.137Z,97287.54
2018-02-06T12:05:56.415Z,97283.82
2018-02-06T12:08:25.060Z,97279.91
2018-02-06T12:10:56.020Z,97268.41
2018-02-06T12:13:24.539Z,97274.01
2018-02-06T12:15:52.843Z,97269.08
2018-02-06T12:18:22.015Z,97269.47
2018-02-06T12:20:53.740Z,97263.04
2018-02-06T12:23:23.092Z,97265.84
2018-02-06T12:25:51.615Z,97252.61
2018-02-06T12:28:20.897Z,97252.75
2018-02-06T12:30:49.943Z,97246.50
2018-02-06T12:33:19.064Z,97242.66
2018-02-06T12:35:47.591Z,97239.79
2018-02-06T12:38:15.934Z,97225.07
2018-02-06T12:40:45.015Z,97222.98
2018-02-06T12:43:13.362Z,97230.48
2018-02-06T12:45:41.683Z,97217.11
2018-02-06T12:48:11.068Z,97223.09
2018-02-06T12:50:39.400Z,97214.31
2018-02-06T12:53:07.780Z,97219.71
2018-02-06T12:55:36.110Z,97211.84
2018-02-06T12:58:05.662Z,97209.32
2018-02-06T13:00:35.031Z,97202.61
2018-02-06T13:03:03.410Z,97202.30
2018-02-06T13:05:31.783Z,97204.83
2018-02-06T13:08:00.294Z,97205.44
2018-02-06T13:10:28.692Z,97196.39
2018-02-06T13:12:57.002Z,97208.22
2018-02-06T13:15:25.401Z,97203.42
2018-02-06T13:17:54.681Z,97195.14
2018-02-06T13:20:22.990Z,97180.20
2018-02-06T13:22:51.448Z,97179.75
2018-02-06T13:25:21.012Z,97173.27
2018-02-06T13:27:49.583Z,97165.77
2018-02-06T13:30:18.025Z,97166.33
2018-02-06T13:32:46.412Z,97173.30
2018-02-06T13:35:20.715Z,97177.26
2018-02-06T13:37:49.800Z,97183.25
2018-02-06T13:40:18.108Z,97174.52
2018-02-06T13:42:46.411Z,97174.13
2018-02-06T13:45:14.790Z,97179.39
2018-02-06T13:47:46.410Z,97166.06
2018-02-06T13:50:14.802Z,97167.18
2018-02-06T13:52:43.250Z,97158.69
2018-02-06T13:55:11.637Z,97152.35
2018-02-06T13:57:47.251Z,97146.74
2018-02-06T14:00:15.712Z,97144.26
2018-02-06T14:02:44.092Z,97149.04
2018-02-06T14:05:12.556Z,97149.03
2018-02-06T14:07:41.103Z,97146.30
2018-02-06T14:12:44.023Z,97141.59
2018-02-06T14:15:12.465Z,97144.84
2018-02-06T14:17:40.851Z,97144.83
2018-02-06T14:20:10.114Z,97143.30
2018-02-06T14:22:39.274Z,97143.27
2018-02-06T14:25:07.919Z,97139.10
2018-02-06T14:27:36.621Z,97144.16
2018-02-06T14:30:05.511Z,97145.94
2018-02-06T14:32:34.333Z,97143.79
2018-02-06T14:35:03.561Z,97142.84
2018-02-06T14:37:32.097Z,97145.69
2018-02-06T14:40:00.530Z,97142.70
2018-02-06T14:42:28.875Z,97140.12
2018-02-06T14:44:57.186Z,97143.56
2018-02-06T14:47:26.306Z,97146.80
2018-02-06T14:49:55.520Z,97138.03
2018-02-06T14:52:23.959Z,97141.70
2018-02-06T14:54:52.431Z,97137.52
2018-02-06T14:57:20.784Z,97140.20
2018-02-06T14:59:49.100Z,97145.11
2018-02-06T15:02:17.443Z,97141.85
2018-02-06T15:04:45.818Z,97151.20
2018-02-06T15:07:14.158Z,97152.33
2018-02-06T15:09:42.469Z,97154.98
2018-02-06T15:12:10.888Z,97149.50
2018-02-06T15:14:39.253Z,97149.03
2018-02-06T15:17:07.730Z,97154.78
2018-02-06T15:19:36.289Z,97158.09
2018-02-06T15:22:05.379Z,97152.67
2018-02-06T15:24:33.919Z,97153.25
2018-02-06T15:27:02.189Z,97154.80
2018-02-06T15:29:30.456Z,97157.70
2018-02-06T15:31:58.768Z,97148.97
2018-02-06T15:34:27.015Z,97149.45
2018-02-06T15:36:55.313Z,97150.02
2018-02-06T15:39:23.560Z,97151.57
2018-02-06T15:41:52.612Z,97149.85
2018-02-06T15:44:20.907Z,97143.95
2018-02-06T15:46:49.203Z,97146.81
2018-02-06T15:49:17.479Z,97139.97
2018-02-06T15:51:45.756Z,97139.19
2018-02-06T15:54:14.032Z,97132.92
2018-02-06T15:56:43.132Z,97137.38
2018-02-06T15:59:12.154Z,97131.64
2018-02-06T16:01:42.028Z,97123.55
2018-02-06T16:04:10.524Z,97130.14
2018-02-06T16:06:39.875Z,97127.55
2018-02-06T16:09:09.043Z,97129.59
2018-02-06T16:11:37.311Z,97131.55
2018-02-06T16:14:05.581Z,97132.95
2018-02-06T16:16:33.896Z,97139.38
2018-02-06T16:19:02.144Z,97143.36
2018-02-06T16:21:31.226Z,97145.66
2018-02-06T16:24:00.287Z,97147.78
2018-02-06T16:26:28.543Z,97143.60
2018-02-06T16:28:56.822Z,97145.25
2018-02-06T16:31:25.079Z,97142.16
2018-02-06T16:33:53.349Z,97150.77
2018-02-06T16:36:21.615Z,97144.38
2018-02-06T16:38:50.670Z,97147.16
2018-02-06T16:41:18.940Z,97144.44
2018-02-06T16:43:47.247Z,97154.52
2018-02-06T16:46:15.511Z,97149.00
2018-02-06T16:48:43.801Z,97149.02
2018-02-06T16:51:12.082Z,97151.37
2018-02-06T16:53:40.395Z,97148.42
2018-02-06T16:56:08.650Z,97149.86
2018-02-06T16:58:37.691Z,97152.58
2018-02-06T17:01:05.968Z,97158.53
2018-02-06T17:03:34.242Z,97145.10
2018-02-06T17:06:02.499Z,97157.80
2018-02-06T17:08:30.766Z,97150.23
2018-02-06T17:10:59.043Z,97147.20
2018-02-06T17:13:27.314Z,97144.46
2018-02-06T17:15:55.559Z,97145.60
2018-02-06T17:18:23.840Z,97148.30
2018-02-06T17:20:52.113Z,97147.80
2018-02-06T17:23:20.398Z,97144.70
2018-02-06T17:25:48.670Z,97147.94
2018-02-06T17:28:16.957Z,97141.17
2018-02-06T17:30:45.215Z,97146.89
2018-02-06T17:33:14.262Z,97149.30
2018-02-06T17:35:42.538Z,97138.16
2018-02-06T17:38:11.569Z,97141.63
2018-02-06T17:40:39.852Z,97146.52
2018-02-06T17:43:08.139Z,97151.94
2018-02-06T17:45:36.402Z,97150.52
2018-02-06T17:48:05.611Z,97151.69
2018-02-06T17:50:33.917Z,97151.27
2018-02-06T17:53:02.205Z,97156.44
2018-02-06T17:55:30.479Z,97161.33
2018-02-06T17:57:59.525Z,97147.92
2018-02-06T18:00:27.796Z,97147.69
2018-02-06T18:02:56.082Z,97147.47
2018-02-06T18:05:25.117Z,97150.48
2018-02-06T18:07:53.370Z,97147.71
2018-02-06T18:10:21.679Z,97151.56
2018-02-06T18:12:49.939Z,97150.97
2018-02-06T18:15:18.230Z,97142.47
2018-02-06T18:17:46.503Z,97147.62
2018-02-06T18:20:14.770Z,97138.39
2018-02-06T18:22:43.032Z,97143.53
2018-02-06T18:25:11.335Z,97140.03
2018-02-06T18:27:39.630Z,97140.59
2018-02-06T18:30:07.939Z,97148.29
2018-02-06T18:32:37.108Z,97144.25
2018-02-06T18:35:06.369Z,97145.99
2018-02-06T18:37:34.698Z,97144.23
2018-02-06T18:40:03.030Z,97142.52
2018-02-06T18:42:32.799Z,97149.16
2018-02-06T18:45:01.107Z,97150.22
2018-02-06T18:47:29.383Z,97147.90
2018-02-06T18:49:57.683Z,97150.00
2018-02-06T18:52:26.069Z,97147.12
2018-02-06T18:54:54.355Z,97149.69
2018-02-06T18:57:22.612Z,97147.98
2018-02-06T18:59:51.001Z,97142.53
2018-02-06T19:02:20.057Z,97151.39
2018-02-06T19:04:48.372Z,97154.43
2018-02-06T19:07:16.663Z,97165.19
2018-02-06T19:09:44.923Z,97159.34
2018-02-06T19:12:13.215Z,97151.30
2018-02-06T19:14:41.479Z,97149.31
2018-02-06T19:17:09.772Z,97153.41
2018-02-06T19:19:38.096Z,97153.37
2018-02-06T19:22:06.383Z,97143.91
2018-02-06T19:24:34.827Z,97148.39
2018-02-06T19:27:03.124Z,97147.89
2018-02-06T19:29:31.417Z,97145.50
2018-02-06T19:31:59.709Z,97152.45
2018-02-06T19:34:28.761Z,97145.43
2018-02-06T19:36:57.108Z,97144.92
2018-02-06T19:39:25.563Z,97144.70
2018-02-06T19:41:54.708Z,97151.00
2018-02-06T19:44:23.051Z,97134.16
2018-02-06T19:46:51.334Z,97137.85
2018-02-06T19:49:19.612Z,97140.71
2018-02-06T19:51:47.889Z,97142.92
2018-02-06T19:54:16.163Z,97146.77
2018-02-06T19:56:44.500Z,97140.91
2018-02-06T19:59:12.762Z,97138.16
2018-02-06T20:01:41.064Z,97140.53
2018-02-06T20:04:09.353Z,97139.36
2018-02-06T20:06:37.639Z,97135.71
2018-02-06T20:09:06.036Z,97135.58
2018-02-06T20:11:34.384Z,97144.48
2018-02-06T20:14:02.709Z,97150.94
2018-02-06T20:16:31.024Z,97150.16
2018-02-06T20:18:59.352Z,97152.98
2018-02-06T20:21:27.742Z,97156.45
2018-02-06T20:23:56.057Z,97154.76
2018-02-06T20:26:24.328Z,97149.30
2018-02-06T20:28:53.245Z,97154.59
2018-02-06T20:31:21.512Z,97162.95
2018-02-06T20:33:49.788Z,97155.58
2018-02-06T20:36:18.879Z,97157.63
2018-02-06T20:38:47.200Z,97154.14
2018-02-06T20:41:15.474Z,97158.18
2018-02-06T20:43:45.266Z,97158.22
2018-02-06T20:46:13.574Z,97154.02
2018-02-06T20:48:41.893Z,97143.40
2018-02-06T20:51:10.915Z,97145.98
2018-02-06T20:53:40.416Z,97145.37
2018-02-06T20:56:09.475Z,97143.25
2018-02-06T20:58:37.827Z,97144.53
2018-02-06T21:01:06.135Z,97137.34
2018-02-06T21:03:34.440Z,97135.39
2018-02-06T21:06:02.734Z,97133.25
2018-02-06T21:08:31.019Z,97135.28
2018-02-06T21:10:59.419Z,97140.67
2018-02-06T21:13:27.759Z,97135.22
2018-02-06T21:15:56.015Z,97136.73
2018-02-06T21:18:24.345Z,97135.72
2018-02-06T21:20:53.423Z,97141.89
2018-02-06T21:23:21.755Z,97135.34
2018-02-06T21:25:50.017Z,97134.70
2018-02-06T21:28:19.112Z,97144.94
2018-02-06T21:30:47.423Z,97139.48
2018-02-06T21:33:17.293Z,97137.80
2018-02-06T21:35:45.559Z,97147.25
2018-02-06T21:38:13.842Z,97148.29
2018-02-06T21:40:42.166Z,97149.80
2018-02-06T21:43:10.439Z,97147.08
2018-02-06T21:45:38.730Z,97148.18
2018-02-06T21:48:07.036Z,97147.25
2018-02-06T21:50:35.308Z,97143.20
2018-02-06T21:53:03.608Z,97144.94
2018-02-06T21:55:31.891Z,97153.84
2018-02-06T21:58:01.899Z,97143.94
2018-02-06T22:00:30.179Z,97142.64
2018-02-06T22:02:58.473Z,97136.84
2018-02-06T22:05:26.792Z,97131.86
2018-02-06T22:07:55.063Z,97137.05
2018-02-06T22:10:23.339Z,97137.42
2018-02-06T22:12:51.630Z,97135.34
2018-02-06T22:15:20.681Z,97135.53
2018-02-06T22:17:50.476Z,97148.38
2018-02-06T22:20:18.758Z,97140.16
2018-02-06T22:22:47.019Z,97135.52
2018-02-06T22:25:16.064Z,97128.55
2018-02-06T22:27:44.324Z,97143.45
2018-02-06T22:30:12.631Z,97128.37
2018-02-06T22:32:40.925Z,97136.97
2018-02-06T22:35:09.207Z,97131.42
2018-02-06T22:37:37.512Z,97129.59
2018-02-06T22:40:05.800Z,97135.34
2018-02-06T22:42:34.085Z,97137.13
2018-02-06T22:45:02.368Z,97129.95
2018-02-06T22:47:30.709Z,97129.62
2018-02-06T22:49:58.952Z,97134.87
2018-02-06T22:52:27.215Z,97135.00
2018-02-06T22:54:55.523Z,97136.98
2018-02-06T22:57:23.778Z,97137.54
2018-02-06T22:59:52.840Z,97145.63
2018-02-06T23:02:21.132Z,97142.50
2018-02-06T23:04:49.406Z,97136.44
2018-02-06T23:07:17.748Z,97138.98
2018-02-06T23:09:46.027Z,97145.19
2018-02-06T23:12:14.290Z,97137.98
2018-02-06T23:14:42.571Z,97147.09
2018-02-06T23:17:10.835Z,97149.19
2018-02-06T23:19:39.149Z,97154.98
2018-02-06T23:22:07.413Z,97149.36
2018-02-06T23:24:36.445Z,97144.82
2018-02-06T23:27:04.824Z,97151.83
2018-02-06T23:29:33.100Z,97150.02
2018-02-06T23:32:01.372Z,97150.28
2018-02-06T23:34:30.413Z,97148.53
2018-02-06T23:36:58.781Z,97151.91
2018-02-06T23:39:27.002Z,97153.47
2018-02-06T23:41:55.280Z,97152.63
2018-02-06T23:44:23.560Z,97156.58
2018-02-06T23:46:51.853Z,97146.84
2018-02-06T23:49:20.129Z,97146.77
2018-02-06T23:51:48.405Z,97148.92
2018-02-06T23:54:17.435Z,97147.12
2018-02-06T23:56:45.874Z,97149.13
2018-02-06T23:59:14.156Z,97151.67
